Time;durP1;ratioP1;P1;durP2;ratioP2;P2;SDS_P1;SDS_P2;PMS_P1;PMS_P2;Temp;Humidity;BMP_temperature;BMP_pressure;BME280_temperature;BME280_humidity;BME280_pressure;Samples;Min_cycle;Max_cycle;Signal;HPM_P1;HPM_P2
2023/09/11 00:00:59;;;;;;;12.20;6.63;;;20.40;99.90;;;;;;5093124;28;20122;-73
2023/09/11 00:03:25;;;;;;;13.63;7.35;;;20.30;99.90;;;;;;5094413;28;20020;-72
2023/09/11 00:05:51;;;;;;;10.80;7.50;;;20.30;99.90;;;;;;5093022;28;20175;-73
2023/09/11 00:08:16;;;;;;;10.50;6.70;;;20.30;99.90;;;;;;5094010;28;20036;-73
2023/09/11 00:10:42;;;;;;;12.25;7.13;;;20.30;99.90;;;;;;5093936;28;20031;-72
2023/09/11 00:13:08;;;;;;;9.57;6.40;;;20.40;99.90;;;;;;5092780;28;20032;-72
2023/09/11 00:15:34;;;;;;;11.50;7.15;;;20.30;99.90;;;;;;5093800;28;20024;-72
2023/09/11 00:18:00;;;;;;;9.55;6.25;;;20.40;99.90;;;;;;5093712;28;20016;-72
2023/09/11 00:20:26;;;;;;;10.13;7.20;;;20.30;99.90;;;;;;5093868;28;20054;-73
2023/09/11 00:22:52;;;;;;;8.50;6.53;;;20.40;99.90;;;;;;5093987;28;20040;-72
2023/09/11 00:25:17;;;;;;;10.27;7.68;;;20.30;99.90;;;;;;5094240;28;20068;-71
2023/09/11 00:27:43;;;;;;;12.65;6.60;;;20.10;99.90;;;;;;5093694;28;20565;-72
2023/09/11 00:30:09;;;;;;;10.68;7.38;;;20.20;99.90;;;;;;5093466;28;20119;-72
2023/09/11 00:32:35;;;;;;;9.63;7.28;;;20.20;99.90;;;;;;5093426;28;20024;-72
2023/09/11 00:35:00;;;;;;;11.35;6.72;;;20.20;99.90;;;;;;5093430;28;20085;-72
2023/09/11 00:37:26;;;;;;;10.38;6.90;;;20.10;99.90;;;;;;5093347;28;20023;-72
2023/09/11 00:39:51;;;;;;;10.60;7.10;;;20.00;99.90;;;;;;5093350;28;20066;-73
2023/09/11 00:42:17;;;;;;;12.13;7.03;;;20.00;99.90;;;;;;5093483;28;20066;-73
2023/09/11 00:44:43;;;;;;;9.50;7.45;;;20.00;99.90;;;;;;5093348;28;20036;-72
2023/09/11 00:47:09;;;;;;;9.38;6.50;;;20.00;99.90;;;;;;5093134;28;20020;-72
2023/09/11 00:49:35;;;;;;;13.23;8.02;;;20.00;99.90;;;;;;5093270;28;20019;-73
2023/09/11 00:52:02;;;;;;;14.25;6.78;;;20.00;99.90;;;;;;5093499;28;20077;-72
2023/09/11 00:54:28;;;;;;;9.25;7.22;;;20.10;99.90;;;;;;5092880;28;20012;-73
2023/09/11 00:56:55;;;;;;;10.13;7.13;;;20.10;99.90;;;;;;5093042;28;20115;-73
2023/09/11 00:59:21;;;;;;;12.38;7.30;;;19.90;99.90;;;;;;5091916;28;20304;-72
2023/09/11 01:01:48;;;;;;;10.50;7.05;;;19.80;99.90;;;;;;5093145;28;20036;-73
2023/09/11 01:04:15;;;;;;;13.15;7.10;;;19.80;99.90;;;;;;5092927;28;20062;-73
2023/09/11 01:06:40;;;;;;;14.60;9.18;;;19.80;99.90;;;;;;5092537;28;20040;-73
2023/09/11 01:09:06;;;;;;;9.88;7.55;;;19.80;99.90;;;;;;5092817;28;20342;-73
2023/09/11 01:11:32;;;;;;;12.07;7.43;;;19.70;99.90;;;;;;5092646;28;20047;-74
2023/09/11 01:13:58;;;;;;;9.55;6.85;;;19.70;99.90;;;;;;5092470;28;20464;-74
2023/09/11 01:16:36;;;;;;;10.07;6.75;;;19.70;99.90;;;;;;5092693;28;20076;-73
2023/09/11 01:19:36;;;;;;;8.70;6.35;;;19.70;99.90;;;;;;5092670;28;20554;-73
2023/09/11 01:22:28;;;;;;;11.88;6.85;;;19.70;99.90;;;;;;5091710;28;20056;-73
2023/09/11 01:25:11;;;;;;;9.10;6.95;;;19.70;99.90;;;;;;5091616;28;20127;-73
2023/09/11 01:27:53;;;;;;;10.95;7.13;;;19.60;99.90;;;;;;5092371;28;20106;-74
2023/09/11 01:30:21;;;;;;;9.00;7.47;;;19.60;99.90;;;;;;5091475;28;20408;-73
2023/09/11 01:32:48;;;;;;;12.88;7.10;;;19.50;99.90;;;;;;5092340;28;20020;-73
2023/09/11 01:35:14;;;;;;;10.60;7.15;;;19.50;99.90;;;;;;5088461;28;20531;-73
2023/09/11 01:37:40;;;;;;;12.25;7.72;;;19.50;99.90;;;;;;5072071;28;20028;-73
2023/09/11 01:40:06;;;;;;;9.90;7.07;;;19.50;99.90;;;;;;5071831;28;20123;-73
2023/09/11 01:42:44;;;;;;;13.55;7.30;;;19.50;99.90;;;;;;5071975;28;20016;-73
2023/09/11 01:45:13;;;;;;;11.60;8.00;;;19.50;99.90;;;;;;5071896;28;20043;-73
2023/09/11 01:47:39;;;;;;;8.32;6.90;;;19.50;99.90;;;;;;5071772;28;20115;-73
2023/09/11 01:50:06;;;;;;;10.80;7.10;;;19.50;99.90;;;;;;5071917;28;20116;-75
2023/09/11 01:52:33;;;;;;;10.55;7.25;;;19.50;99.90;;;;;;5071710;28;20054;-74
2023/09/11 01:54:59;;;;;;;15.20;8.23;;;19.50;99.90;;;;;;5071749;28;20025;-74
2023/09/11 01:57:28;;;;;;;10.52;7.63;;;19.50;99.90;;;;;;5071718;28;20401;-74
2023/09/11 01:59:53;;;;;;;12.40;8.40;;;19.40;99.90;;;;;;5071890;28;20036;-73
2023/09/11 02:02:19;;;;;;;14.63;8.38;;;19.30;99.90;;;;;;5071816;28;20103;-73
2023/09/11 02:04:45;;;;;;;9.48;7.65;;;19.30;99.90;;;;;;5070194;28;20028;-72
2023/09/11 02:07:11;;;;;;;13.43;8.35;;;19.40;99.90;;;;;;5071491;28;20049;-73
2023/09/11 02:09:36;;;;;;;11.52;7.28;;;19.30;99.90;;;;;;5071717;28;20028;-73
2023/09/11 02:12:02;;;;;;;12.18;7.63;;;19.30;99.90;;;;;;5070495;28;20119;-74
2023/09/11 02:14:28;;;;;;;11.35;8.02;;;19.30;99.90;;;;;;5071604;28;20028;-73
2023/09/11 02:16:54;;;;;;;11.07;7.38;;;19.20;99.90;;;;;;5071603;28;20024;-73
2023/09/11 02:19:19;;;;;;;11.85;8.27;;;19.20;99.90;;;;;;5071573;28;20021;-73
2023/09/11 02:21:45;;;;;;;12.43;8.00;;;19.20;99.90;;;;;;5071656;28;20453;-73
2023/09/11 02:24:11;;;;;;;16.85;9.27;;;19.20;99.90;;;;;;5071472;28;20051;-72
2023/09/11 02:26:36;;;;;;;10.85;7.53;;;19.20;99.90;;;;;;5071583;28;20124;-72
2023/09/11 02:29:02;;;;;;;15.85;7.75;;;19.20;99.90;;;;;;5071752;28;20107;-72
2023/09/11 02:31:28;;;;;;;14.57;8.65;;;19.20;99.90;;;;;;5071233;28;20121;-72
2023/09/11 02:33:53;;;;;;;14.63;8.30;;;19.10;99.90;;;;;;5071508;28;20052;-72
2023/09/11 02:36:19;;;;;;;12.35;7.65;;;19.10;99.90;;;;;;5071503;28;20032;-72
2023/09/11 02:38:45;;;;;;;10.85;7.57;;;19.10;99.90;;;;;;5071501;28;20107;-72
2023/09/11 02:41:10;;;;;;;11.93;7.53;;;19.10;99.90;;;;;;5071237;28;20035;-72
2023/09/11 02:43:36;;;;;;;12.63;7.88;;;19.10;99.90;;;;;;5071353;28;20146;-72
2023/09/11 02:46:02;;;;;;;12.68;8.30;;;19.10;99.90;;;;;;5071301;28;20036;-72
2023/09/11 02:48:27;;;;;;;11.88;7.68;;;19.10;99.90;;;;;;5071508;28;20048;-72
2023/09/11 02:50:53;;;;;;;15.38;8.02;;;19.10;99.90;;;;;;5071366;28;20195;-71
2023/09/11 02:53:20;;;;;;;14.00;8.50;;;19.10;99.90;;;;;;5071646;28;20414;-71
2023/09/11 02:55:45;;;;;;;12.10;7.43;;;19.10;99.90;;;;;;5071256;28;20086;-71
2023/09/11 02:58:11;;;;;;;10.98;7.65;;;19.10;99.90;;;;;;5071256;28;20025;-72
2023/09/11 03:00:37;;;;;;;13.55;8.95;;;19.10;99.90;;;;;;5071110;28;20031;-72
2023/09/11 03:03:03;;;;;;;13.60;8.40;;;19.10;99.90;;;;;;5071080;28;20036;-72
2023/09/11 03:05:32;;;;;;;16.58;9.02;;;19.10;99.90;;;;;;5070906;28;20048;-72
2023/09/11 03:07:59;;;;;;;12.13;9.00;;;19.00;99.90;;;;;;5071100;28;20375;-73
2023/09/11 03:10:27;;;;;;;12.82;8.20;;;19.00;99.90;;;;;;5070987;28;20020;-73
2023/09/11 03:12:54;;;;;;;;;;;19.10;99.90;;;;;;5071352;28;20366;-73
2023/09/11 03:15:29;;;;;;;11.05;7.60;;;19.00;99.90;;;;;;5071093;28;19904;-73
2023/09/11 03:17:55;;;;;;;14.23;8.48;;;19.00;99.90;;;;;;5072424;28;20065;-74
2023/09/11 03:20:21;;;;;;;17.95;8.43;;;19.10;99.90;;;;;;5074601;28;20103;-73
2023/09/11 03:22:46;;;;;;;16.38;8.98;;;19.10;99.90;;;;;;5074524;28;20040;-73
2023/09/11 03:25:12;;;;;;;12.07;8.50;;;19.10;99.90;;;;;;5074446;28;20583;-73
2023/09/11 03:27:38;;;;;;;12.13;8.20;;;19.00;99.90;;;;;;5074365;28;20024;-73
2023/09/11 03:30:04;;;;;;;12.90;8.07;;;19.00;99.90;;;;;;5074457;28;20374;-73
2023/09/11 03:32:30;;;;;;;15.27;9.23;;;19.00;99.90;;;;;;5074309;28;20025;-72
2023/09/11 03:34:55;;;;;;;12.80;8.15;;;19.00;99.90;;;;;;5073399;28;20021;-73
2023/09/11 03:37:22;;;;;;;14.68;8.55;;;19.00;99.90;;;;;;5074290;28;20134;-73
2023/09/11 03:39:48;;;;;;;15.27;8.70;;;19.00;99.90;;;;;;5074465;28;20028;-73
2023/09/11 03:42:14;;;;;;;12.25;8.15;;;19.00;99.90;;;;;;5073233;28;20033;-73
2023/09/11 03:44:39;;;;;;;15.35;8.70;;;19.00;99.90;;;;;;5074064;28;20036;-72
2023/09/11 03:47:05;;;;;;;22.02;8.98;;;18.90;99.90;;;;;;5073176;28;20029;-72
2023/09/11 03:49:31;;;;;;;14.90;8.32;;;18.90;99.90;;;;;;5074317;28;20033;-72
2023/09/11 03:51:57;;;;;;;12.43;8.70;;;18.90;99.90;;;;;;5074034;28;20039;-73
2023/09/11 03:54:23;;;;;;;16.48;8.68;;;19.00;99.90;;;;;;5074423;28;20017;-73
2023/09/11 03:56:49;;;;;;;13.52;8.82;;;19.00;99.90;;;;;;5074158;28;20086;-72
2023/09/11 03:59:15;;;;;;;18.80;8.05;;;18.90;99.90;;;;;;5073890;28;20020;-72
2023/09/11 04:01:40;;;;;;;16.52;8.88;;;18.90;99.90;;;;;;5074138;28;20102;-72
2023/09/11 04:04:06;;;;;;;13.38;8.15;;;18.90;99.90;;;;;;5073898;28;20094;-72
2023/09/11 04:06:32;;;;;;;18.17;9.15;;;18.80;99.90;;;;;;5073723;28;20115;-72
2023/09/11 04:08:57;;;;;;;15.50;8.52;;;18.80;99.90;;;;;;5073576;28;20035;-72
2023/09/11 04:11:23;;;;;;;15.70;9.02;;;18.70;99.90;;;;;;5073694;28;20024;-72
2023/09/11 04:13:49;;;;;;;13.57;8.77;;;18.80;99.90;;;;;;5073583;28;20068;-73
2023/09/11 04:16:15;;;;;;;16.20;8.55;;;18.70;99.90;;;;;;5073551;28;20342;-73
2023/09/11 04:18:44;;;;;;;14.93;8.55;;;18.80;99.90;;;;;;5073636;28;20166;-73
2023/09/11 04:21:10;;;;;;;16.90;9.25;;;18.90;99.90;;;;;;5073368;28;20033;-73
2023/09/11 04:23:35;;;;;;;14.30;9.07;;;18.90;99.90;;;;;;5074080;28;20031;-72
2023/09/11 04:26:01;;;;;;;13.68;9.02;;;18.90;99.90;;;;;;5073598;28;20032;-72
2023/09/11 04:28:27;;;;;;;15.25;8.75;;;18.90;99.90;;;;;;5072877;28;20035;-73
2023/09/11 04:30:53;;;;;;;16.40;8.00;;;18.90;99.90;;;;;;5073423;28;20032;-73
2023/09/11 04:33:19;;;;;;;14.00;9.02;;;18.90;99.90;;;;;;5073151;28;20028;-73
2023/09/11 04:35:45;;;;;;;18.17;8.57;;;18.90;99.90;;;;;;5073307;28;20017;-72
2023/09/11 04:38:10;;;;;;;17.58;8.23;;;18.80;99.90;;;;;;5073127;28;20464;-73
2023/09/11 04:40:36;;;;;;;10.57;8.23;;;18.90;99.90;;;;;;5073046;28;20032;-73
2023/09/11 04:43:02;;;;;;;13.88;8.77;;;18.80;99.90;;;;;;5073160;28;20021;-72
2023/09/11 04:45:27;;;;;;;15.30;8.73;;;18.80;99.90;;;;;;5073493;28;20081;-73
2023/09/11 04:47:53;;;;;;;19.77;8.75;;;18.80;99.90;;;;;;5073013;28;20119;-73
2023/09/11 04:50:19;;;;;;;18.75;9.80;;;18.80;99.90;;;;;;5073002;28;20038;-72
2023/09/11 04:52:44;;;;;;;14.75;8.35;;;18.80;99.90;;;;;;5071834;28;20024;-72
2023/09/11 04:55:10;;;;;;;23.08;8.82;;;18.80;99.90;;;;;;5072976;28;20097;-73
2023/09/11 04:57:40;;;;;;;26.88;8.85;;;18.80;99.90;;;;;;5072641;28;20336;-73
2023/09/11 05:00:10;;;;;;;15.07;9.20;;;18.90;99.90;;;;;;5072800;28;20288;-72
2023/09/11 05:02:37;;;;;;;15.05;8.65;;;18.90;99.90;;;;;;5072538;28;20029;-73
2023/09/11 05:05:03;;;;;;;18.15;9.23;;;18.80;99.90;;;;;;5072668;28;20031;-73
2023/09/11 05:07:30;;;;;;;20.27;10.52;;;18.80;99.90;;;;;;5072681;28;20083;-73
2023/09/11 05:09:55;;;;;;;19.52;9.43;;;18.80;99.90;;;;;;5072537;28;20024;-72
2023/09/11 05:12:21;;;;;;;13.88;8.77;;;18.80;99.90;;;;;;5072152;28;20029;-72
2023/09/11 05:14:47;;;;;;;13.88;8.27;;;18.70;99.90;;;;;;5072656;28;20016;-71
2023/09/11 05:17:13;;;;;;;13.80;9.30;;;18.70;99.90;;;;;;5072042;28;20659;-73
2023/09/11 05:19:38;;;;;;;16.27;9.02;;;18.70;99.90;;;;;;5072655;28;20705;-74
2023/09/11 05:22:04;;;;;;;14.80;9.57;;;18.70;99.90;;;;;;5071952;28;20055;-73
2023/09/11 05:24:31;;;;;;;15.45;8.98;;;18.70;99.90;;;;;;5072288;28;20037;-73
2023/09/11 05:26:57;;;;;;;13.07;8.80;;;18.70;99.90;;;;;;5072269;28;20074;-71
2023/09/11 05:29:23;;;;;;;19.25;9.52;;;18.70;99.90;;;;;;5072189;28;20029;-72
2023/09/11 05:31:49;;;;;;;22.27;10.70;;;18.70;99.90;;;;;;5071979;28;20052;-72
2023/09/11 05:34:14;;;;;;;18.23;9.68;;;18.70;99.90;;;;;;5071795;28;20042;-72
2023/09/11 05:36:40;;;;;;;17.77;9.55;;;18.80;99.90;;;;;;5072092;28;20107;-72
2023/09/11 05:39:06;;;;;;;18.20;8.88;;;18.90;99.90;;;;;;5071404;28;20443;-73
2023/09/11 05:41:32;;;;;;;19.70;9.38;;;18.80;99.90;;;;;;5071622;28;20358;-72
2023/09/11 05:43:58;;;;;;;15.02;9.13;;;18.80;99.90;;;;;;5073247;28;20470;-73
2023/09/11 05:46:24;;;;;;;15.38;9.68;;;18.80;99.90;;;;;;5092013;28;20020;-73
2023/09/11 05:48:49;;;;;;;24.80;9.45;;;18.80;99.90;;;;;;5091904;28;20020;-73
2023/09/11 05:51:15;;;;;;;18.85;9.55;;;18.90;99.90;;;;;;5091760;28;20438;-72
2023/09/11 05:53:41;;;;;;;17.15;9.25;;;18.90;99.90;;;;;;5091852;28;20024;-73
2023/09/11 05:56:07;;;;;;;18.48;9.85;;;18.90;99.90;;;;;;5091893;28;20043;-74
2023/09/11 05:58:32;;;;;;;20.77;9.15;;;18.90;99.90;;;;;;5091619;28;20098;-72
2023/09/11 06:00:58;;;;;;;23.08;9.70;;;19.00;99.90;;;;;;5091948;28;20035;-74
2023/09/11 06:03:24;;;;;;;20.60;10.13;;;19.00;99.90;;;;;;5091798;28;20434;-71
2023/09/11 06:05:49;;;;;;;24.55;13.85;;;19.00;99.90;;;;;;5090997;28;20024;-75
2023/09/11 06:08:15;;;;;;;19.73;12.68;;;19.10;99.90;;;;;;5091720;28;20123;-75
2023/09/11 06:10:40;;;;;;;21.45;11.82;;;19.10;99.90;;;;;;5091636;28;20028;-74
2023/09/11 06:13:06;;;;;;;15.85;9.93;;;19.20;99.90;;;;;;5091726;28;20028;-77
2023/09/11 06:15:32;;;;;;;15.77;10.23;;;19.20;99.90;;;;;;5092000;28;20355;-76
2023/09/11 06:17:58;;;;;;;19.27;11.95;;;19.20;99.90;;;;;;5091678;28;20036;-74
2023/09/11 06:20:24;;;;;;;27.23;13.57;;;19.30;99.90;;;;;;5091894;28;20085;-74
2023/09/11 06:22:51;;;;;;;19.80;10.77;;;19.30;99.90;;;;;;5091591;28;20465;-73
2023/09/11 06:25:17;;;;;;;18.80;10.18;;;19.40;99.90;;;;;;5091960;28;20081;-73
2023/09/11 06:27:42;;;;;;;13.73;9.73;;;19.40;99.90;;;;;;5090182;28;20032;-73
2023/09/11 06:30:08;;;;;;;17.73;10.20;;;19.40;99.90;;;;;;5092082;28;20039;-73
2023/09/11 06:32:34;;;;;;;19.25;9.63;;;19.50;99.90;;;;;;5091514;28;20089;-73
2023/09/11 06:35:01;;;;;;;18.42;10.48;;;19.50;99.90;;;;;;5091520;28;20046;-72
2023/09/11 06:37:27;;;;;;;17.90;9.57;;;19.60;99.90;;;;;;5091634;28;20066;-73
2023/09/11 06:39:53;;;;;;;17.48;10.75;;;19.60;99.90;;;;;;5091479;28;20048;-72
2023/09/11 06:42:23;;;;;;;16.35;9.75;;;19.60;99.90;;;;;;5091432;28;20055;-72
2023/09/11 06:44:50;;;;;;;13.68;9.45;;;19.70;99.90;;;;;;5091446;28;20035;-72
2023/09/11 06:47:16;;;;;;;23.17;11.35;;;19.80;99.90;;;;;;5091374;28;20112;-73
2023/09/11 06:49:42;;;;;;;21.55;10.30;;;19.80;99.90;;;;;;5091516;28;20115;-74
2023/09/11 06:52:08;;;;;;;26.90;13.32;;;19.90;99.90;;;;;;5094472;28;20035;-73
2023/09/11 06:54:33;;;;;;;23.40;14.82;;;20.00;99.90;;;;;;5096231;28;20546;-73
2023/09/11 06:56:59;;;;;;;16.98;9.85;;;20.00;99.90;;;;;;5095097;28;20016;-74
2023/09/11 06:59:26;;;;;;;24.45;10.73;;;20.10;99.90;;;;;;5095259;28;20024;-76
2023/09/11 07:01:52;;;;;;;18.45;9.68;;;20.20;99.90;;;;;;5095492;28;20493;-75
2023/09/11 07:04:18;;;;;;;18.48;9.82;;;20.20;99.90;;;;;;5095625;28;20493;-74
2023/09/11 07:06:43;;;;;;;22.35;9.20;;;20.30;99.90;;;;;;5095103;28;20134;-74
2023/09/11 07:09:10;;;;;;;19.60;9.02;;;20.40;99.90;;;;;;5095110;28;20028;-73
2023/09/11 07:11:36;;;;;;;18.10;9.50;;;20.50;99.90;;;;;;5094877;28;20365;-73
2023/09/11 07:14:02;;;;;;;18.67;10.35;;;20.60;99.90;;;;;;5095343;28;20026;-70
2023/09/11 07:16:28;;;;;;;18.67;10.02;;;20.70;99.90;;;;;;5095029;28;20023;-73
2023/09/11 07:18:54;;;;;;;16.73;8.88;;;20.70;99.90;;;;;;5094436;28;20020;-73
2023/09/11 07:21:19;;;;;;;20.73;9.27;;;20.80;99.90;;;;;;5095196;28;20059;-74
2023/09/11 07:23:45;;;;;;;12.77;8.73;;;20.90;99.90;;;;;;5094849;28;20032;-74
2023/09/11 07:26:10;;;;;;;17.23;9.10;;;21.00;99.90;;;;;;5095000;28;20028;-73
2023/09/11 07:28:56;;;;;;;22.83;9.52;;;21.10;99.90;;;;;;5094733;28;20202;-73
2023/09/11 07:31:22;;;;;;;21.00;7.97;;;21.20;99.90;;;;;;5094851;28;20097;-75
2023/09/11 07:33:48;;;;;;;18.75;8.13;;;21.30;99.90;;;;;;5095188;28;20024;-78
2023/09/11 07:36:13;;;;;;;18.85;8.98;;;21.40;99.90;;;;;;5095038;28;20028;-77
2023/09/11 07:38:44;;;;;;;23.33;10.43;;;21.50;99.90;;;;;;5095174;28;20458;-76
2023/09/11 07:41:20;;;;;;;22.88;8.95;;;21.60;99.90;;;;;;5094825;28;20017;-74
2023/09/11 07:43:49;;;;;;;15.18;8.63;;;21.70;99.90;;;;;;5094756;28;20111;-72
2023/09/11 07:46:19;;;;;;;17.80;8.48;;;21.70;99.90;;;;;;5094683;28;20031;-71
2023/09/11 07:48:45;;;;;;;21.30;7.90;;;21.80;99.90;;;;;;5094551;28;20055;-71
2023/09/11 07:51:12;;;;;;;19.13;8.65;;;21.90;99.90;;;;;;5094611;28;20412;-73
2023/09/11 07:53:38;;;;;;;20.98;8.00;;;22.00;99.90;;;;;;5094473;28;20114;-72
2023/09/11 07:56:08;;;;;;;20.73;7.82;;;22.10;99.90;;;;;;5094168;28;20039;-72
2023/09/11 07:58:35;;;;;;;15.70;7.53;;;22.20;99.90;;;;;;5094107;28;20384;-73
2023/09/11 08:01:01;;;;;;;17.50;8.35;;;22.30;99.90;;;;;;5094699;28;20020;-75
2023/09/11 08:03:27;;;;;;;18.55;8.25;;;22.40;99.90;;;;;;5093291;28;20381;-73
2023/09/11 08:05:53;;;;;;;16.13;6.80;;;22.40;99.90;;;;;;5094376;28;20117;-75
2023/09/11 08:08:19;;;;;;;17.38;8.20;;;22.50;99.90;;;;;;5094133;28;20098;-73
2023/09/11 08:10:45;;;;;;;25.40;9.60;;;22.60;99.90;;;;;;5093928;28;20031;-74
2023/09/11 08:13:11;;;;;;;19.13;8.68;;;22.70;99.90;;;;;;5093917;28;20036;-77
2023/09/11 08:15:37;;;;;;;22.48;8.30;;;22.90;99.90;;;;;;5093910;28;20069;-75
2023/09/11 08:18:02;;;;;;;17.98;7.78;;;23.10;99.90;;;;;;5094054;28;20020;-75
2023/09/11 08:20:28;;;;;;;16.08;6.80;;;23.30;99.90;;;;;;5093814;28;20288;-74
2023/09/11 08:22:54;;;;;;;23.25;6.97;;;23.80;99.90;;;;;;5093510;28;20342;-71
2023/09/11 08:25:19;;;;;;;18.45;6.85;;;24.50;99.90;;;;;;5093786;28;20462;-75
2023/09/11 08:27:45;;;;;;;15.07;6.00;;;24.90;99.50;;;;;;5093649;28;20024;-74
2023/09/11 08:30:11;;;;;;;11.90;5.57;;;25.70;98.40;;;;;;5093586;28;20028;-77
2023/09/11 08:32:38;;;;;;;24.10;6.80;;;26.70;97.40;;;;;;5093433;28;20031;-77
2023/09/11 08:35:04;;;;;;;15.55;5.95;;;27.50;95.60;;;;;;5093813;28;20032;-73
2023/09/11 08:37:30;;;;;;;19.45;6.10;;;28.60;94.80;;;;;;5093520;28;20036;-73
2023/09/11 08:39:56;;;;;;;18.58;5.70;;;29.40;92.30;;;;;;5093221;28;20051;-71
2023/09/11 08:42:23;;;;;;;15.75;5.90;;;30.50;92.60;;;;;;5092265;28;20504;-73
2023/09/11 08:44:49;;;;;;;17.77;4.97;;;30.90;90.10;;;;;;5093534;28;20138;-73
2023/09/11 08:47:16;;;;;;;16.48;5.70;;;31.60;90.50;;;;;;5093187;28;20499;-75
2023/09/11 08:49:53;;;;;;;26.83;6.63;;;32.30;86.40;;;;;;5093195;28;20089;-73
2023/09/11 08:52:19;;;;;;;17.65;6.13;;;32.70;83.40;;;;;;5093495;28;20036;-73
2023/09/11 08:54:49;;;;;;;25.08;6.63;;;33.70;84.80;;;;;;5092984;28;20032;-73
2023/09/11 08:57:17;;;;;;;22.20;5.78;;;34.10;82.10;;;;;;5093217;28;20024;-77
2023/09/11 08:59:44;;;;;;;14.63;5.32;;;33.80;77.40;;;;;;5093025;28;20016;-74
2023/09/11 09:02:11;;;;;;;19.58;5.05;;;34.00;77.30;;;;;;5092781;28;20361;-77
2023/09/11 09:04:40;;;;;;;17.40;5.70;;;35.00;75.70;;;;;;5093407;28;20028;-74
2023/09/11 09:07:09;;;;;;;22.58;5.75;;;35.20;76.50;;;;;;5092547;28;20048;-75
2023/09/11 09:09:35;;;;;;;11.02;5.40;;;35.30;71.80;;;;;;5092768;28;20450;-72
2023/09/11 09:12:02;;;;;;;15.68;5.18;;;35.60;74.20;;;;;;5092713;28;20121;-73
2023/09/11 09:14:29;;;;;;;23.92;6.43;;;36.10;70.00;;;;;;5091958;28;20123;-76
2023/09/11 09:16:56;;;;;;;;;;;36.00;71.30;;;;;;5093136;28;20119;-75
2023/09/11 09:19:22;;;;;;;21.70;5.35;;;36.80;69.10;;;;;;5091678;28;20008;-74
2023/09/11 09:22:18;;;;;;;15.02;5.35;;;37.40;66.40;;;;;;5092913;28;20170;-71
2023/09/11 09:24:49;;;;;;;16.33;5.15;;;37.50;64.70;;;;;;5083829;28;20446;-72
2023/09/11 09:27:15;;;;;;;16.60;5.90;;;37.90;65.10;;;;;;5092569;28;20024;-73
2023/09/11 09:29:40;;;;;;;21.15;5.40;;;38.50;64.70;;;;;;5091266;28;20059;-72
2023/09/11 09:32:08;;;;;;;20.67;5.20;;;38.70;61.30;;;;;;5091459;28;20176;-72
2023/09/11 09:34:36;;;;;;;16.60;5.40;;;38.40;59.80;;;;;;5092914;28;20032;-74
2023/09/11 09:37:02;;;;;;;16.55;5.78;;;38.10;60.60;;;;;;5091559;28;20016;-73
2023/09/11 09:39:29;;;;;;;12.30;4.70;;;39.00;59.20;;;;;;5093142;28;20396;-77
2023/09/11 09:42:01;;;;;;;19.27;4.80;;;39.80;57.00;;;;;;5092306;28;20543;-72
2023/09/11 09:44:32;;;;;;;27.33;5.18;;;39.30;57.50;;;;;;5092534;28;20032;-71
2023/09/11 09:47:07;;;;;;;16.30;5.25;;;39.70;56.30;;;;;;5092000;28;20327;-72
2023/09/11 09:49:51;;;;;;;22.15;5.55;;;40.30;55.70;;;;;;5091037;28;20035;-72
2023/09/11 09:52:19;;;;;;;17.58;5.47;;;40.00;55.50;;;;;;5091105;28;20024;-73
2023/09/11 09:54:49;;;;;;;15.02;5.50;;;40.60;55.00;;;;;;5092255;28;20484;-75
2023/09/11 09:57:17;;;;;;;19.17;5.45;;;40.30;53.60;;;;;;5092167;28;20103;-73
2023/09/11 09:59:46;;;;;;;18.92;6.13;;;40.50;53.90;;;;;;5092457;28;20024;-73
2023/09/11 10:02:12;;;;;;;10.00;5.05;;;39.80;54.30;;;;;;5092100;28;20024;-72
2023/09/11 10:04:38;;;;;;;18.77;6.65;;;40.60;53.10;;;;;;5092036;28;20081;-74
2023/09/11 10:07:05;;;;;;;16.77;5.53;;;40.50;53.60;;;;;;5091828;28;20064;-73
2023/09/11 10:09:32;;;;;;;16.33;5.15;;;40.80;52.90;;;;;;5092214;28;20031;-75
2023/09/11 10:12:03;;;;;;;18.63;6.27;;;40.90;53.00;;;;;;5091953;28;20063;-74
2023/09/11 10:14:29;;;;;;;13.70;5.13;;;41.00;51.80;;;;;;5091782;28;20127;-74
2023/09/11 10:16:57;;;;;;;19.45;5.63;;;42.20;54.10;;;;;;5091101;28;20417;-73
2023/09/11 10:19:23;;;;;;;17.83;6.03;;;42.10;52.80;;;;;;5091857;28;20089;-74
2023/09/11 10:21:49;;;;;;;20.77;5.60;;;42.20;51.00;;;;;;5092053;28;20035;-74
2023/09/11 10:24:15;;;;;;;18.08;5.80;;;41.80;49.90;;;;;;5091961;28;20089;-73
2023/09/11 10:26:51;;;;;;;16.17;5.00;;;41.90;49.40;;;;;;5091343;28;20039;-74
2023/09/11 10:29:48;;;;;;;17.55;4.90;;;42.00;49.70;;;;;;5091884;28;20095;-73
2023/09/11 10:32:32;;;;;;;18.42;5.28;;;41.00;49.70;;;;;;5073658;28;20044;-73
2023/09/11 10:35:01;;;;;;;25.17;6.38;;;41.70;49.70;;;;;;5092026;28;20043;-73
2023/09/11 10:37:30;;;;;;;19.67;6.05;;;42.00;49.00;;;;;;5090720;28;20107;-74
2023/09/11 10:39:59;;;;;;;17.88;6.00;;;41.70;48.90;;;;;;5091777;28;20024;-74
2023/09/11 10:42:25;;;;;;;19.23;6.72;;;42.60;49.00;;;;;;5091602;28;20039;-74
2023/09/11 10:44:54;;;;;;;20.75;6.00;;;41.50;48.30;;;;;;5091893;28;20024;-74
2023/09/11 10:47:20;;;;;;;11.93;4.93;;;42.60;49.50;;;;;;5091518;28;20032;-74
2023/09/11 10:49:49;;;;;;;26.00;6.23;;;41.80;47.20;;;;;;5091526;28;20055;-73
2023/09/11 10:52:15;;;;;;;20.80;5.53;;;41.40;48.20;;;;;;5091435;28;20437;-73
2023/09/11 10:54:42;;;;;;;20.17;5.72;;;40.70;48.40;;;;;;5091584;28;20419;-73
2023/09/11 10:57:07;;;;;;;16.67;5.27;;;41.60;48.20;;;;;;5091615;28;20089;-73
2023/09/11 10:59:34;;;;;;;19.13;5.38;;;42.20;47.00;;;;;;5090481;28;20024;-74
2023/09/11 11:02:01;;;;;;;17.23;5.93;;;41.80;47.40;;;;;;5091590;28;20035;-73
2023/09/11 11:04:31;;;;;;;21.83;5.50;;;42.10;46.90;;;;;;5091318;28;20021;-73
2023/09/11 11:06:59;;;;;;;16.42;6.10;;;40.70;48.00;;;;;;5091143;28;20044;-75
2023/09/11 11:09:27;;;;;;;24.77;5.95;;;40.70;47.70;;;;;;5091310;28;20362;-73
2023/09/11 11:11:57;;;;;;;22.77;5.75;;;41.70;46.40;;;;;;5091459;28;20024;-72
2023/09/11 11:14:23;;;;;;;23.13;6.03;;;40.90;47.20;;;;;;5091475;28;20051;-71
2023/09/11 11:17:05;;;;;;;17.90;5.67;;;40.50;47.10;;;;;;5091690;28;20051;-74
2023/09/11 11:19:33;;;;;;;25.10;7.10;;;40.70;47.10;;;;;;5091043;28;20322;-74
2023/09/11 11:22:01;;;;;;;25.05;6.30;;;39.40;49.00;;;;;;5091770;28;20024;-74
2023/09/11 11:24:30;;;;;;;24.92;6.00;;;39.20;48.80;;;;;;5091024;28;20331;-73
2023/09/11 11:26:57;;;;;;;24.95;5.32;;;38.90;49.60;;;;;;5090867;28;20024;-73
2023/09/11 11:29:24;;;;;;;31.63;8.13;;;39.70;48.70;;;;;;5091493;28;20031;-72
2023/09/11 11:31:53;;;;;;;20.00;5.53;;;39.30;48.70;;;;;;5091076;28;20020;-73
2023/09/11 11:34:24;;;;;;;25.95;6.32;;;38.10;50.00;;;;;;5090082;28;20482;-72
2023/09/11 11:36:53;;;;;;;18.27;5.45;;;36.80;51.40;;;;;;5091280;28;20020;-73
2023/09/11 11:39:22;;;;;;;21.95;5.88;;;36.40;52.40;;;;;;5094041;28;20027;-74
2023/09/11 11:41:49;;;;;;;25.00;5.97;;;36.30;52.90;;;;;;5093570;28;20055;-71
2023/09/11 11:44:16;;;;;;;;;;;35.80;53.30;;;;;;5095088;28;20051;-72
2023/09/11 11:46:42;;;;;;;19.20;5.20;;;35.70;53.80;;;;;;5094487;28;19904;-72
2023/09/11 11:49:08;;;;;;;25.58;5.55;;;35.70;54.30;;;;;;5094546;28;20032;-72
2023/09/11 11:51:34;;;;;;;22.40;7.18;;;35.60;54.80;;;;;;5094403;28;20485;-72
2023/09/11 11:54:00;;;;;;;27.17;7.30;;;35.40;55.40;;;;;;5094770;28;20116;-71
2023/09/11 11:56:26;;;;;;;26.52;6.18;;;35.40;55.30;;;;;;5094374;28;20048;-70
2023/09/11 11:58:57;;;;;;;18.85;5.00;;;35.10;55.60;;;;;;5094458;28;20078;-73
2023/09/11 12:01:23;;;;;;;29.52;5.57;;;34.60;55.70;;;;;;5094460;28;20035;-73
2023/09/11 12:03:49;;;;;;;18.40;5.50;;;34.40;56.10;;;;;;5093171;28;20053;-72
2023/09/11 12:06:16;;;;;;;23.52;5.80;;;34.30;56.20;;;;;;5094133;28;20043;-74
2023/09/11 12:08:44;;;;;;;19.52;5.47;;;34.20;56.60;;;;;;5094462;28;20059;-72
2023/09/11 12:11:10;;;;;;;25.65;5.80;;;34.00;56.60;;;;;;5094408;28;20056;-74
2023/09/11 12:13:36;;;;;;;27.98;5.40;;;33.80;56.80;;;;;;5094054;28;20024;-72
2023/09/11 12:16:02;;;;;;;23.77;6.55;;;33.60;56.30;;;;;;5094502;28;20023;-73
2023/09/11 12:18:35;;;;;;;22.88;4.85;;;33.50;57.30;;;;;;5093883;28;20324;-73
2023/09/11 12:21:06;;;;;;;17.00;4.70;;;33.50;57.70;;;;;;5094348;28;20039;-75
2023/09/11 12:23:33;;;;;;;28.42;5.28;;;33.30;58.00;;;;;;5093887;28;20016;-72
2023/09/11 12:26:01;;;;;;;21.85;5.43;;;33.20;57.60;;;;;;5094024;28;20081;-73
2023/09/11 12:28:27;;;;;;;22.98;5.60;;;33.10;58.10;;;;;;5092907;28;20366;-72
2023/09/11 12:30:54;;;;;;;22.17;5.63;;;33.10;58.20;;;;;;5093758;28;20168;-74
2023/09/11 12:33:27;;;;;;;25.92;5.38;;;33.00;58.30;;;;;;5093747;28;20107;-74
2023/09/11 12:35:55;;;;;;;25.73;6.13;;;33.00;58.80;;;;;;5093893;28;20620;-72
2023/09/11 12:38:23;;;;;;;21.10;5.43;;;33.10;58.30;;;;;;5093941;28;20030;-73